TimeCDT,TemperatureF,Dew PointF,Humidity,Sea Level PressureIn,VisibilityMPH,Wind Direction,Wind SpeedMPH,Gust SpeedMPH,PrecipitationIn,Events,Conditions,WindDirDegrees,DateUTC
12:53 AM,66.9,64.9,93,30.10,10.0,East,5.8,-,0.00,Rain,Light Rain,100,2013-07-17 05:53:00
1:41 AM,66.2,64.4,94,30.20,9.0,East,4.6,-,0.00,,Scattered Clouds,80,2013-07-17 06:41:00
1:51 AM,66.2,64.4,94,30.20,8.0,East,3.5,-,0.00,,Mostly Cloudy,80,2013-07-17 06:51:00
1:53 AM,66.0,64.9,96,30.10,8.0,East,3.5,-,0.00,,Mostly Cloudy,80,2013-07-17 06:53:00
2:53 AM,66.9,64.9,93,30.09,10.0,East,3.5,-,N/A,,Overcast,80,2013-07-17 07:53:00
3:02 AM,66.2,64.4,94,30.19,7.0,East,4.6,-,0.00,Rain,Light Rain,90,2013-07-17 08:02:00
3:35 AM,66.2,64.4,94,30.19,6.0,East,4.6,-,0.00,Rain,Light Rain,90,2013-07-17 08:35:00
3:50 AM,66.2,64.4,94,30.19,5.0,ENE,5.8,-,0.03,Rain,Light Rain,60,2013-07-17 08:50:00
3:53 AM,66.9,64.9,93,30.08,6.0,ENE,4.6,-,0.03,Rain,Light Rain,60,2013-07-17 08:53:00
4:02 AM,66.2,64.4,94,30.18,8.0,ENE,5.8,-,0.01,Rain,Light Rain,70,2013-07-17 09:02:00
4:25 AM,66.2,64.4,94,30.19,5.0,ENE,5.8,-,0.01,,Overcast,70,2013-07-17 09:25:00
4:33 AM,66.2,64.4,94,30.19,3.0,East,5.8,-,0.01,,Overcast,80,2013-07-17 09:33:00
4:48 AM,66.2,64.4,94,30.20,1.8,East,5.8,-,0.02,Rain,Light Rain,90,2013-07-17 09:48:00
4:53 AM,66.0,64.9,96,30.09,1.5,East,4.6,-,0.05,Rain,Heavy Rain,100,2013-07-17 09:53:00
5:05 AM,66.2,64.4,94,30.20,2.5,East,4.6,-,0.07,Rain,Heavy Rain,80,2013-07-17 10:05:00
5:13 AM,66.2,66.2,100,30.21,3.0,Variable,4.6,-,0.12,Rain,Heavy Rain,0,2013-07-17 10:13:00
5:21 AM,66.2,66.2,100,30.21,4.0,East,4.6,-,0.15,Rain,Rain,100,2013-07-17 10:21:00
5:34 AM,66.2,66.2,100,30.21,5.0,ESE,5.8,-,0.20,Rain,Rain,120,2013-07-17 10:34:00
5:41 AM,66.2,64.4,94,30.21,5.0,SE,4.6,-,0.22,Rain,Rain,140,2013-07-17 10:41:00
5:53 AM,66.9,64.9,93,30.09,5.0,SE,5.8,-,0.25,Rain,Rain,130,2013-07-17 10:53:00
6:53 AM,66.9,64.9,93,30.09,10.0,ESE,8.1,-,0.12,Rain,Light Rain,110,2013-07-17 11:53:00
7:02 AM,66.2,64.4,94,30.21,10.0,ESE,6.9,-,0.00,Rain,Light Rain,110,2013-07-17 12:02:00
7:53 AM,66.9,64.9,93,30.11,10.0,East,9.2,-,0.00,,Overcast,100,2013-07-17 12:53:00
8:22 AM,66.2,64.4,94,30.23,10.0,ESE,8.1,-,N/A,,Mostly Cloudy,110,2013-07-17 13:22:00
8:35 AM,66.2,64.4,94,30.23,10.0,East,9.2,-,0.01,,Mostly Cloudy,100,2013-07-17 13:35:00
8:48 AM,66.2,64.4,94,30.23,10.0,ESE,10.4,-,0.01,,Scattered Clouds,120,2013-07-17 13:48:00
8:53 AM,66.9,64.9,93,30.12,10.0,ESE,10.4,-,0.01,,Mostly Cloudy,110,2013-07-17 13:53:00
9:53 AM,68.0,64.9,90,30.14,10.0,ESE,9.2,-,0.00,,Overcast,120,2013-07-17 14:53:00
10:04 AM,69.8,66.2,88,30.24,10.0,ESE,11.5,-,N/A,,Overcast,120,2013-07-17 15:04:00
10:12 AM,69.8,66.2,88,30.24,10.0,ESE,15.0,-,N/A,,Mostly Cloudy,120,2013-07-17 15:12:00
10:53 AM,70.0,64.9,84,30.14,10.0,ESE,11.5,-,N/A,,Overcast,120,2013-07-17 15:53:00
11:53 AM,73.0,64.9,76,30.13,10.0,ESE,12.7,-,N/A,,Overcast,120,2013-07-17 16:53:00
12:25 PM,73.4,64.4,73,30.24,10.0,ESE,12.7,19.6,N/A,,Overcast,110,2013-07-17 17:25:00
12:53 PM,73.9,64.9,73,30.12,10.0,SE,12.7,-,0.00,,Overcast,130,2013-07-17 17:53:00
1:53 PM,75.9,64.0,67,30.10,10.0,East,11.5,-,0.00,,Scattered Clouds,100,2013-07-17 18:53:00
2:53 PM,75.9,66.0,71,30.09,10.0,East,13.8,-,0.00,,Overcast,90,2013-07-17 19:53:00
3:53 PM,73.9,66.0,76,30.08,10.0,East,8.1,-,0.00,,Mostly Cloudy,90,2013-07-17 20:53:00
4:53 PM,72.0,66.0,81,30.08,2.5,South,13.8,21.9,0.00,Rain,Rain,180,2013-07-17 21:53:00
5:02 PM,71.6,66.2,83,30.19,6.0,SSE,5.8,17.3,0.00,Rain,Light Rain,150,2013-07-17 22:02:00
5:30 PM,69.8,66.2,88,30.19,1.5,SSE,17.3,26.5,0.00,Rain,Heavy Rain,150,2013-07-17 22:30:00
5:33 PM,69.8,66.2,88,30.19,0.8,SSE,16.1,26.5,0.00,Rain,Heavy Rain,150,2013-07-17 22:33:00
5:42 PM,69.8,66.2,88,30.19,1.2,SE,8.1,-,N/A,Rain,Rain,140,2013-07-17 22:42:00
5:47 PM,69.8,64.4,83,30.18,4.0,SE,5.8,-,N/A,Rain,Light Rain,130,2013-07-17 22:47:00
5:53 PM,71.1,64.9,81,30.07,10.0,SE,6.9,-,N/A,Rain,Light Rain,130,2013-07-17 22:53:00
6:53 PM,73.0,66.0,79,30.06,10.0,SSE,8.1,-,0.17,,Overcast,150,2013-07-17 23:53:00
7:53 PM,73.0,66.9,81,30.06,10.0,East,6.9,-,0.08,,Mostly Cloudy,100,2013-07-18 00:53:00
8:53 PM,73.0,68.0,84,30.08,10.0,Calm,Calm,-,N/A,,Overcast,0,2013-07-18 01:53:00
9:53 PM,71.1,66.9,87,30.09,10.0,NE,3.5,-,N/A,,Overcast,50,2013-07-18 02:53:00
10:16 PM,71.6,66.2,83,30.22,10.0,ENE,3.5,-,N/A,,Overcast,60,2013-07-18 03:16:00
10:53 PM,72.0,66.0,81,30.11,10.0,East,9.2,-,N/A,,Overcast,100,2013-07-18 03:53:00
11:00 PM,71.6,66.2,83,30.22,10.0,ESE,11.5,-,N/A,,Overcast,120,2013-07-18 04:00:00
11:40 PM,69.8,64.4,83,30.23,10.0,ESE,10.4,-,0.00,,Overcast,120,2013-07-18 04:40:00
11:53 PM,69.1,64.9,87,30.10,10.0,ESE,9.2,-,0.00,,Overcast,120,2013-07-18 04:53:00